sensor_id;sensor_type;location;lat;lon;timestamp;temperature;humidity
17918;DHT22;9084;50.956;3.106;2022-12-29T00:01:39;11.60;99.90
17918;DHT22;9084;50.956;3.106;2022-12-29T00:04:09;11.60;99.90
17918;DHT22;9084;50.956;3.106;2022-12-29T00:06:36;11.60;99.90
17918;DHT22;9084;50.956;3.106;2022-12-29T00:09:02;11.60;99.90
17918;DHT22;9084;50.956;3.106;2022-12-29T00:11:28;11.70;99.90
17918;DHT22;9084;50.956;3.106;2022-12-29T00:13:55;11.70;99.90
17918;DHT22;9084;50.956;3.106;2022-12-29T00:16:44;11.70;99.90
17918;DHT22;9084;50.956;3.106;2022-12-29T00:19:11;11.60;99.90
17918;DHT22;9084;50.956;3.106;2022-12-29T00:21:57;11.60;99.90
17918;DHT22;9084;50.956;3.106;2022-12-29T00:24:45;11.40;99.90
17918;DHT22;9084;50.956;3.106;2022-12-29T00:27:29;11.20;99.90
17918;DHT22;9084;50.956;3.106;2022-12-29T00:30:17;11.10;99.90
17918;DHT22;9084;50.956;3.106;2022-12-29T00:33:14;11.00;99.90
17918;DHT22;9084;50.956;3.106;2022-12-29T00:39:01;10.80;99.90
17918;DHT22;9084;50.956;3.106;2022-12-29T00:41:48;10.90;99.90
17918;DHT22;9084;50.956;3.106;2022-12-29T00:44:32;11.00;99.90
17918;DHT22;9084;50.956;3.106;2022-12-29T00:47:00;11.00;99.90
17918;DHT22;9084;50.956;3.106;2022-12-29T00:49:30;11.00;99.90
17918;DHT22;9084;50.956;3.106;2022-12-29T00:52:08;11.00;99.90
17918;DHT22;9084;50.956;3.106;2022-12-29T00:54:36;11.00;99.90
17918;DHT22;9084;50.956;3.106;2022-12-29T00:57:04;11.00;99.90
17918;DHT22;9084;50.956;3.106;2022-12-29T00:59:31;11.00;99.90
17918;DHT22;9084;50.956;3.106;2022-12-29T01:01:58;11.00;99.90
17918;DHT22;9084;50.956;3.106;2022-12-29T01:04:25;11.10;99.90
17918;DHT22;9084;50.956;3.106;2022-12-29T01:06:54;11.10;99.90
17918;DHT22;9084;50.956;3.106;2022-12-29T01:09:21;11.10;99.90
17918;DHT22;9084;50.956;3.106;2022-12-29T01:12:06;11.10;99.90
17918;DHT22;9084;50.956;3.106;2022-12-29T01:14:33;11.20;99.90
17918;DHT22;9084;50.956;3.106;2022-12-29T01:16:58;11.20;99.90
17918;DHT22;9084;50.956;3.106;2022-12-29T01:19:25;11.20;99.90
17918;DHT22;9084;50.956;3.106;2022-12-29T01:21:51;11.20;99.90
17918;DHT22;9084;50.956;3.106;2022-12-29T01:24:18;11.20;99.90
17918;DHT22;9084;50.956;3.106;2022-12-29T01:26:45;11.20;99.90
17918;DHT22;9084;50.956;3.106;2022-12-29T01:29:11;11.20;99.90
17918;DHT22;9084;50.956;3.106;2022-12-29T01:31:38;11.20;99.90
17918;DHT22;9084;50.956;3.106;2022-12-29T01:34:06;11.20;99.90
17918;DHT22;9084;50.956;3.106;2022-12-29T01:36:32;11.20;99.90
17918;DHT22;9084;50.956;3.106;2022-12-29T01:38:59;11.20;99.90
17918;DHT22;9084;50.956;3.106;2022-12-29T01:41:25;11.20;99.90
17918;DHT22;9084;50.956;3.106;2022-12-29T01:43:53;11.20;99.90
17918;DHT22;9084;50.956;3.106;2022-12-29T01:48:52;11.30;99.90
17918;DHT22;9084;50.956;3.106;2022-12-29T01:51:21;11.20;99.90
17918;DHT22;9084;50.956;3.106;2022-12-29T01:53:47;11.20;99.90
17918;DHT22;9084;50.956;3.106;2022-12-29T01:56:15;11.20;99.90
17918;DHT22;9084;50.956;3.106;2022-12-29T01:58:45;11.20;99.90
17918;DHT22;9084;50.956;3.106;2022-12-29T02:01:14;11.10;99.90
17918;DHT22;9084;50.956;3.106;2022-12-29T02:03:40;11.00;99.90
17918;DHT22;9084;50.956;3.106;2022-12-29T02:08:35;10.70;99.90
17918;DHT22;9084;50.956;3.106;2022-12-29T02:11:05;10.60;99.90
17918;DHT22;9084;50.956;3.106;2022-12-29T02:13:31;10.50;99.90
17918;DHT22;9084;50.956;3.106;2022-12-29T02:16:02;10.40;99.90
17918;DHT22;9084;50.956;3.106;2022-12-29T02:35:59;10.10;99.90
17918;DHT22;9084;50.956;3.106;2022-12-29T02:40:51;10.00;99.90
17918;DHT22;9084;50.956;3.106;2022-12-29T02:43:22;9.90;99.90
17918;DHT22;9084;50.956;3.106;2022-12-29T02:45:53;9.90;99.90
17918;DHT22;9084;50.956;3.106;2022-12-29T02:51:24;9.90;99.90
17918;DHT22;9084;50.956;3.106;2022-12-29T02:53:56;9.80;99.90
17918;DHT22;9084;50.956;3.106;2022-12-29T02:56:40;9.80;99.90
17918;DHT22;9084;50.956;3.106;2022-12-29T02:59:07;9.80;99.90
17918;DHT22;9084;50.956;3.106;2022-12-29T03:02:05;9.90;99.90
17918;DHT22;9084;50.956;3.106;2022-12-29T03:05:00;9.90;99.90
17918;DHT22;9084;50.956;3.106;2022-12-29T03:08:02;9.90;99.90
17918;DHT22;9084;50.956;3.106;2022-12-29T03:13:32;9.90;99.90
17918;DHT22;9084;50.956;3.106;2022-12-29T03:19:09;9.90;99.90
17918;DHT22;9084;50.956;3.106;2022-12-29T03:21:43;9.90;99.90
17918;DHT22;9084;50.956;3.106;2022-12-29T03:24:35;9.90;99.90
17918;DHT22;9084;50.956;3.106;2022-12-29T03:27:03;9.90;99.90
17918;DHT22;9084;50.956;3.106;2022-12-29T03:29:39;9.90;99.90
17918;DHT22;9084;50.956;3.106;2022-12-29T03:32:09;10.00;99.90
17918;DHT22;9084;50.956;3.106;2022-12-29T03:34:38;10.00;99.90
17918;DHT22;9084;50.956;3.106;2022-12-29T03:37:13;10.10;99.90
17918;DHT22;9084;50.956;3.106;2022-12-29T03:39:43;10.10;99.90
17918;DHT22;9084;50.956;3.106;2022-12-29T03:42:21;10.10;99.90
17918;DHT22;9084;50.956;3.106;2022-12-29T03:44:53;10.20;99.90
17918;DHT22;9084;50.956;3.106;2022-12-29T03:47:20;10.20;99.90
17918;DHT22;9084;50.956;3.106;2022-12-29T03:49:46;10.20;99.90
17918;DHT22;9084;50.956;3.106;2022-12-29T03:52:14;10.30;99.90
17918;DHT22;9084;50.956;3.106;2022-12-29T03:54:41;10.30;99.90
17918;DHT22;9084;50.956;3.106;2022-12-29T03:57:08;10.30;99.90
17918;DHT22;9084;50.956;3.106;2022-12-29T03:59:34;10.30;99.90
17918;DHT22;9084;50.956;3.106;2022-12-29T04:02:00;10.30;99.90
17918;DHT22;9084;50.956;3.106;2022-12-29T04:04:26;10.20;99.90
17918;DHT22;9084;50.956;3.106;2022-12-29T04:06:52;10.10;99.90
17918;DHT22;9084;50.956;3.106;2022-12-29T04:09:18;10.10;99.90
17918;DHT22;9084;50.956;3.106;2022-12-29T04:11:43;10.00;99.90
17918;DHT22;9084;50.956;3.106;2022-12-29T04:14:09;10.00;99.90
17918;DHT22;9084;50.956;3.106;2022-12-29T04:16:35;10.10;99.90
17918;DHT22;9084;50.956;3.106;2022-12-29T04:19:02;10.10;99.90
17918;DHT22;9084;50.956;3.106;2022-12-29T04:21:28;10.20;99.90
17918;DHT22;9084;50.956;3.106;2022-12-29T04:23:54;10.20;99.90
17918;DHT22;9084;50.956;3.106;2022-12-29T04:26:20;10.30;99.90
17918;DHT22;9084;50.956;3.106;2022-12-29T04:28:45;10.30;99.90
17918;DHT22;9084;50.956;3.106;2022-12-29T04:31:11;10.30;99.90
17918;DHT22;9084;50.956;3.106;2022-12-29T04:33:39;10.30;99.90
17918;DHT22;9084;50.956;3.106;2022-12-29T04:36:08;10.30;99.90
17918;DHT22;9084;50.956;3.106;2022-12-29T04:38:34;10.30;99.90
17918;DHT22;9084;50.956;3.106;2022-12-29T04:41:01;10.30;99.90
17918;DHT22;9084;50.956;3.106;2022-12-29T04:43:29;10.30;99.90
17918;DHT22;9084;50.956;3.106;2022-12-29T04:45:55;10.40;99.90
17918;DHT22;9084;50.956;3.106;2022-12-29T04:48:21;10.40;99.90
17918;DHT22;9084;50.956;3.106;2022-12-29T04:50:48;10.30;99.90
17918;DHT22;9084;50.956;3.106;2022-12-29T04:53:16;10.40;99.90
17918;DHT22;9084;50.956;3.106;2022-12-29T04:55:42;10.40;99.90
17918;DHT22;9084;50.956;3.106;2022-12-29T04:58:08;10.30;99.90
17918;DHT22;9084;50.956;3.106;2022-12-29T05:00:34;10.40;99.90
17918;DHT22;9084;50.956;3.106;2022-12-29T05:03:00;10.40;99.90
17918;DHT22;9084;50.956;3.106;2022-12-29T05:05:26;10.30;99.90
17918;DHT22;9084;50.956;3.106;2022-12-29T05:07:52;10.40;99.90
17918;DHT22;9084;50.956;3.106;2022-12-29T05:10:18;10.40;99.90
17918;DHT22;9084;50.956;3.106;2022-12-29T05:12:44;10.50;99.90
17918;DHT22;9084;50.956;3.106;2022-12-29T05:15:13;10.50;99.90
17918;DHT22;9084;50.956;3.106;2022-12-29T05:17:39;10.50;99.90
17918;DHT22;9084;50.956;3.106;2022-12-29T05:20:06;10.50;99.90
17918;DHT22;9084;50.956;3.106;2022-12-29T05:22:32;10.40;99.90
17918;DHT22;9084;50.956;3.106;2022-12-29T05:25:00;10.50;99.90
17918;DHT22;9084;50.956;3.106;2022-12-29T05:27:26;10.50;99.90
17918;DHT22;9084;50.956;3.106;2022-12-29T05:29:52;10.50;99.90
17918;DHT22;9084;50.956;3.106;2022-12-29T05:32:17;10.50;99.90
17918;DHT22;9084;50.956;3.106;2022-12-29T05:34:44;10.50;99.90
17918;DHT22;9084;50.956;3.106;2022-12-29T05:37:10;10.50;99.90
17918;DHT22;9084;50.956;3.106;2022-12-29T05:39:36;10.50;99.90
17918;DHT22;9084;50.956;3.106;2022-12-29T05:42:03;10.50;99.90
17918;DHT22;9084;50.956;3.106;2022-12-29T05:44:31;10.40;99.90
17918;DHT22;9084;50.956;3.106;2022-12-29T05:46:57;10.40;99.90
17918;DHT22;9084;50.956;3.106;2022-12-29T05:49:23;10.40;99.90
17918;DHT22;9084;50.956;3.106;2022-12-29T05:51:51;10.40;99.90
17918;DHT22;9084;50.956;3.106;2022-12-29T05:54:17;10.30;99.90
17918;DHT22;9084;50.956;3.106;2022-12-29T05:56:43;10.30;99.90
17918;DHT22;9084;50.956;3.106;2022-12-29T05:59:11;10.40;99.90
17918;DHT22;9084;50.956;3.106;2022-12-29T06:01:37;10.40;99.90
17918;DHT22;9084;50.956;3.106;2022-12-29T06:04:03;10.30;99.90
17918;DHT22;9084;50.956;3.106;2022-12-29T06:06:29;10.40;99.90
17918;DHT22;9084;50.956;3.106;2022-12-29T06:08:55;10.40;99.90
17918;DHT22;9084;50.956;3.106;2022-12-29T06:11:21;10.40;99.90
17918;DHT22;9084;50.956;3.106;2022-12-29T06:13:47;10.50;99.90
17918;DHT22;9084;50.956;3.106;2022-12-29T06:16:13;10.40;99.90
17918;DHT22;9084;50.956;3.106;2022-12-29T06:18:39;10.30;99.90
17918;DHT22;9084;50.956;3.106;2022-12-29T06:21:07;10.20;99.90
17918;DHT22;9084;50.956;3.106;2022-12-29T06:23:36;10.00;99.90
17918;DHT22;9084;50.956;3.106;2022-12-29T06:26:01;9.80;99.90
17918;DHT22;9084;50.956;3.106;2022-12-29T06:28:27;9.70;99.90
17918;DHT22;9084;50.956;3.106;2022-12-29T06:30:53;9.60;99.90
17918;DHT22;9084;50.956;3.106;2022-12-29T06:33:19;9.60;99.90
17918;DHT22;9084;50.956;3.106;2022-12-29T06:35:47;9.60;99.90
17918;DHT22;9084;50.956;3.106;2022-12-29T06:38:12;9.60;99.90
17918;DHT22;9084;50.956;3.106;2022-12-29T06:40:39;9.60;99.90
17918;DHT22;9084;50.956;3.106;2022-12-29T06:43:06;9.70;99.90
17918;DHT22;9084;50.956;3.106;2022-12-29T06:45:35;9.70;99.90
17918;DHT22;9084;50.956;3.106;2022-12-29T06:48:02;9.70;99.90
17918;DHT22;9084;50.956;3.106;2022-12-29T06:50:28;9.80;99.90
17918;DHT22;9084;50.956;3.106;2022-12-29T06:52:56;9.80;99.90
17918;DHT22;9084;50.956;3.106;2022-12-29T06:55:22;9.90;99.90
17918;DHT22;9084;50.956;3.106;2022-12-29T06:57:48;9.90;99.90
17918;DHT22;9084;50.956;3.106;2022-12-29T07:00:15;10.00;99.90
17918;DHT22;9084;50.956;3.106;2022-12-29T07:02:41;10.10;99.90
17918;DHT22;9084;50.956;3.106;2022-12-29T07:05:07;10.10;99.90
17918;DHT22;9084;50.956;3.106;2022-12-29T07:07:37;10.20;99.90
17918;DHT22;9084;50.956;3.106;2022-12-29T07:10:03;10.20;99.90
17918;DHT22;9084;50.956;3.106;2022-12-29T07:12:29;10.20;99.90
17918;DHT22;9084;50.956;3.106;2022-12-29T07:14:54;10.30;99.90
17918;DHT22;9084;50.956;3.106;2022-12-29T07:17:20;10.30;99.90
17918;DHT22;9084;50.956;3.106;2022-12-29T07:19:46;10.30;99.90
17918;DHT22;9084;50.956;3.106;2022-12-29T07:22:14;10.40;99.90
17918;DHT22;9084;50.956;3.106;2022-12-29T07:24:40;10.40;99.90
17918;DHT22;9084;50.956;3.106;2022-12-29T07:27:06;10.40;99.90
17918;DHT22;9084;50.956;3.106;2022-12-29T07:29:32;10.50;99.90
17918;DHT22;9084;50.956;3.106;2022-12-29T07:31:58;10.50;99.90
17918;DHT22;9084;50.956;3.106;2022-12-29T07:34:27;10.40;99.90
17918;DHT22;9084;50.956;3.106;2022-12-29T07:36:52;10.40;99.90
17918;DHT22;9084;50.956;3.106;2022-12-29T07:39:21;10.40;99.90
17918;DHT22;9084;50.956;3.106;2022-12-29T07:41:46;10.30;99.90
17918;DHT22;9084;50.956;3.106;2022-12-29T07:44:12;10.10;99.90
17918;DHT22;9084;50.956;3.106;2022-12-29T07:46:38;10.00;99.90
17918;DHT22;9084;50.956;3.106;2022-12-29T07:49:04;10.00;99.90
17918;DHT22;9084;50.956;3.106;2022-12-29T07:51:29;9.90;99.90
17918;DHT22;9084;50.956;3.106;2022-12-29T07:53:55;9.90;99.90
17918;DHT22;9084;50.956;3.106;2022-12-29T07:56:22;9.90;99.90
17918;DHT22;9084;50.956;3.106;2022-12-29T07:58:49;10.00;99.90
17918;DHT22;9084;50.956;3.106;2022-12-29T08:01:15;9.90;99.90
17918;DHT22;9084;50.956;3.106;2022-12-29T08:03:41;10.00;99.90
17918;DHT22;9084;50.956;3.106;2022-12-29T08:06:12;10.00;99.90
17918;DHT22;9084;50.956;3.106;2022-12-29T08:08:38;10.00;99.90
17918;DHT22;9084;50.956;3.106;2022-12-29T08:11:04;10.00;99.90
17918;DHT22;9084;50.956;3.106;2022-12-29T08:13:29;9.90;99.90
17918;DHT22;9084;50.956;3.106;2022-12-29T08:15:57;9.80;99.90
17918;DHT22;9084;50.956;3.106;2022-12-29T08:18:23;9.80;99.90
17918;DHT22;9084;50.956;3.106;2022-12-29T08:20:50;9.70;99.90
17918;DHT22;9084;50.956;3.106;2022-12-29T08:23:16;9.70;99.90
17918;DHT22;9084;50.956;3.106;2022-12-29T08:25:41;9.60;99.90
17918;DHT22;9084;50.956;3.106;2022-12-29T08:28:07;9.50;99.90
17918;DHT22;9084;50.956;3.106;2022-12-29T08:30:33;9.50;99.90
17918;DHT22;9084;50.956;3.106;2022-12-29T08:33:01;9.50;99.90
17918;DHT22;9084;50.956;3.106;2022-12-29T08:35:27;9.40;99.90
17918;DHT22;9084;50.956;3.106;2022-12-29T08:37:53;9.40;99.90
17918;DHT22;9084;50.956;3.106;2022-12-29T08:40:18;9.50;99.90
17918;DHT22;9084;50.956;3.106;2022-12-29T08:42:44;9.50;99.90
17918;DHT22;9084;50.956;3.106;2022-12-29T08:45:12;9.50;99.90
17918;DHT22;9084;50.956;3.106;2022-12-29T08:47:39;9.60;99.90
17918;DHT22;9084;50.956;3.106;2022-12-29T08:50:07;9.60;99.90
17918;DHT22;9084;50.956;3.106;2022-12-29T08:52:33;9.60;99.90
17918;DHT22;9084;50.956;3.106;2022-12-29T08:54:59;9.60;99.90
17918;DHT22;9084;50.956;3.106;2022-12-29T08:57:25;9.60;99.90
17918;DHT22;9084;50.956;3.106;2022-12-29T08:59:50;9.60;99.90
17918;DHT22;9084;50.956;3.106;2022-12-29T09:02:17;9.60;99.90
17918;DHT22;9084;50.956;3.106;2022-12-29T09:04:43;9.60;99.90
17918;DHT22;9084;50.956;3.106;2022-12-29T09:07:08;9.60;99.90
17918;DHT22;9084;50.956;3.106;2022-12-29T09:09:34;9.60;99.90
17918;DHT22;9084;50.956;3.106;2022-12-29T09:12:00;9.60;99.90
17918;DHT22;9084;50.956;3.106;2022-12-29T09:14:26;9.70;99.90
17918;DHT22;9084;50.956;3.106;2022-12-29T09:16:53;9.70;99.90
17918;DHT22;9084;50.956;3.106;2022-12-29T09:19:37;9.70;99.90
17918;DHT22;9084;50.956;3.106;2022-12-29T09:22:02;9.70;99.90
17918;DHT22;9084;50.956;3.106;2022-12-29T09:24:29;9.70;99.90
17918;DHT22;9084;50.956;3.106;2022-12-29T09:26:56;9.70;99.90
17918;DHT22;9084;50.956;3.106;2022-12-29T09:29:23;9.70;99.90
17918;DHT22;9084;50.956;3.106;2022-12-29T09:31:51;9.70;99.90
17918;DHT22;9084;50.956;3.106;2022-12-29T09:34:17;9.70;99.90
17918;DHT22;9084;50.956;3.106;2022-12-29T09:36:48;9.70;99.90
17918;DHT22;9084;50.956;3.106;2022-12-29T09:39:14;9.80;99.90
17918;DHT22;9084;50.956;3.106;2022-12-29T09:41:52;9.70;99.90
17918;DHT22;9084;50.956;3.106;2022-12-29T09:47:01;9.80;99.90
17918;DHT22;9084;50.956;3.106;2022-12-29T09:49:43;9.90;99.90
17918;DHT22;9084;50.956;3.106;2022-12-29T09:52:39;9.90;99.90
17918;DHT22;9084;50.956;3.106;2022-12-29T09:55:16;10.00;99.90
17918;DHT22;9084;50.956;3.106;2022-12-29T09:57:57;10.00;99.90
17918;DHT22;9084;50.956;3.106;2022-12-29T10:01:01;9.90;99.90
17918;DHT22;9084;50.956;3.106;2022-12-29T10:03:49;9.90;99.90
17918;DHT22;9084;50.956;3.106;2022-12-29T10:09:38;9.80;99.90
17918;DHT22;9084;50.956;3.106;2022-12-29T10:13:27;9.80;99.90
17918;DHT22;9084;50.956;3.106;2022-12-29T10:23:59;9.90;99.90
17918;DHT22;9084;50.956;3.106;2022-12-29T10:26:29;9.90;99.90
17918;DHT22;9084;50.956;3.106;2022-12-29T10:29:05;9.90;99.90
17918;DHT22;9084;50.956;3.106;2022-12-29T10:34:05;9.90;99.90
17918;DHT22;9084;50.956;3.106;2022-12-29T10:36:42;9.80;99.90
17918;DHT22;9084;50.956;3.106;2022-12-29T10:44:43;10.00;99.90
17918;DHT22;9084;50.956;3.106;2022-12-29T10:47:21;10.00;99.90
17918;DHT22;9084;50.956;3.106;2022-12-29T10:49:49;10.10;99.90
17918;DHT22;9084;50.956;3.106;2022-12-29T10:52:19;10.10;99.90
17918;DHT22;9084;50.956;3.106;2022-12-29T10:54:58;10.10;99.90
17918;DHT22;9084;50.956;3.106;2022-12-29T10:57:33;10.20;99.90
17918;DHT22;9084;50.956;3.106;2022-12-29T11:00:04;10.20;99.90
17918;DHT22;9084;50.956;3.106;2022-12-29T11:03:17;10.10;99.90
17918;DHT22;9084;50.956;3.106;2022-12-29T11:05:46;10.10;99.90
17918;DHT22;9084;50.956;3.106;2022-12-29T11:08:18;10.00;99.90
17918;DHT22;9084;50.956;3.106;2022-12-29T11:10:46;9.90;99.90
17918;DHT22;9084;50.956;3.106;2022-12-29T11:13:29;9.80;99.90
17918;DHT22;9084;50.956;3.106;2022-12-29T11:15:55;9.70;99.90
17918;DHT22;9084;50.956;3.106;2022-12-29T11:18:50;9.70;99.90
17918;DHT22;9084;50.956;3.106;2022-12-29T11:21:34;9.80;99.90
17918;DHT22;9084;50.956;3.106;2022-12-29T11:24:18;9.80;99.90
17918;DHT22;9084;50.956;3.106;2022-12-29T11:26:52;9.90;99.90
17918;DHT22;9084;50.956;3.106;2022-12-29T11:29:26;9.80;99.90
17918;DHT22;9084;50.956;3.106;2022-12-29T11:31:57;9.80;99.90
17918;DHT22;9084;50.956;3.106;2022-12-29T11:34:33;9.80;99.90
17918;DHT22;9084;50.956;3.106;2022-12-29T11:40:06;9.80;99.90
17918;DHT22;9084;50.956;3.106;2022-12-29T11:42:48;9.80;99.90
17918;DHT22;9084;50.956;3.106;2022-12-29T11:47:52;9.80;99.90
17918;DHT22;9084;50.956;3.106;2022-12-29T11:50:22;9.90;99.90
17918;DHT22;9084;50.956;3.106;2022-12-29T11:52:59;10.00;99.90
17918;DHT22;9084;50.956;3.106;2022-12-29T11:55:27;10.00;99.90
17918;DHT22;9084;50.956;3.106;2022-12-29T11:57:56;9.90;99.90
17918;DHT22;9084;50.956;3.106;2022-12-29T12:00:24;9.90;99.90
17918;DHT22;9084;50.956;3.106;2022-12-29T12:03:03;9.90;99.90
17918;DHT22;9084;50.956;3.106;2022-12-29T12:10:52;10.30;99.90
17918;DHT22;9084;50.956;3.106;2022-12-29T12:13:33;10.40;99.90
17918;DHT22;9084;50.956;3.106;2022-12-29T12:16:17;10.40;99.90
17918;DHT22;9084;50.956;3.106;2022-12-29T12:19:10;10.40;99.90
17918;DHT22;9084;50.956;3.106;2022-12-29T12:21:41;10.40;99.90
17918;DHT22;9084;50.956;3.106;2022-12-29T12:27:13;10.40;99.90
17918;DHT22;9084;50.956;3.106;2022-12-29T12:30:03;10.40;99.90
17918;DHT22;9084;50.956;3.106;2022-12-29T12:46:04;9.90;99.90
17918;DHT22;9084;50.956;3.106;2022-12-29T12:56:51;9.40;99.90
17918;DHT22;9084;50.956;3.106;2022-12-29T13:02:25;9.20;99.90
17918;DHT22;9084;50.956;3.106;2022-12-29T13:05:06;9.20;99.90
17918;DHT22;9084;50.956;3.106;2022-12-29T13:13:09;9.00;99.90
17918;DHT22;9084;50.956;3.106;2022-12-29T13:18:31;9.00;99.90
17918;DHT22;9084;50.956;3.106;2022-12-29T13:24:15;9.00;99.90
17918;DHT22;9084;50.956;3.106;2022-12-29T13:26:47;9.10;99.90
17918;DHT22;9084;50.956;3.106;2022-12-29T13:29:23;9.10;99.90
17918;DHT22;9084;50.956;3.106;2022-12-29T13:35:21;9.20;99.90
17918;DHT22;9084;50.956;3.106;2022-12-29T13:37:54;9.20;99.90
17918;DHT22;9084;50.956;3.106;2022-12-29T13:40:25;9.30;99.90
17918;DHT22;9084;50.956;3.106;2022-12-29T13:42:56;9.20;99.90
17918;DHT22;9084;50.956;3.106;2022-12-29T13:45:29;9.20;99.90
17918;DHT22;9084;50.956;3.106;2022-12-29T13:50:51;9.40;99.90
17918;DHT22;9084;50.956;3.106;2022-12-29T13:56:24;9.30;99.90
17918;DHT22;9084;50.956;3.106;2022-12-29T14:01:49;9.30;99.90
17918;DHT22;9084;50.956;3.106;2022-12-29T14:04:26;9.30;99.90
17918;DHT22;9084;50.956;3.106;2022-12-29T14:07:15;9.40;99.90
17918;DHT22;9084;50.956;3.106;2022-12-29T14:09:45;9.30;99.90
17918;DHT22;9084;50.956;3.106;2022-12-29T14:15:23;9.30;99.90
17918;DHT22;9084;50.956;3.106;2022-12-29T14:18:25;9.30;99.90
17918;DHT22;9084;50.956;3.106;2022-12-29T14:23:41;9.20;99.90
17918;DHT22;9084;50.956;3.106;2022-12-29T14:31:05;9.20;99.90
17918;DHT22;9084;50.956;3.106;2022-12-29T14:33:33;9.20;99.90
17918;DHT22;9084;50.956;3.106;2022-12-29T14:36:21;9.20;99.90
17918;DHT22;9084;50.956;3.106;2022-12-29T14:38:49;9.20;99.90
17918;DHT22;9084;50.956;3.106;2022-12-29T14:43:54;9.20;99.90
17918;DHT22;9084;50.956;3.106;2022-12-29T14:46:21;9.20;99.90
17918;DHT22;9084;50.956;3.106;2022-12-29T14:48:58;9.20;99.90
17918;DHT22;9084;50.956;3.106;2022-12-29T14:51:34;9.20;99.90
17918;DHT22;9084;50.956;3.106;2022-12-29T14:57:01;9.10;99.90
17918;DHT22;9084;50.956;3.106;2022-12-29T14:59:29;9.10;99.90
17918;DHT22;9084;50.956;3.106;2022-12-29T15:01:56;9.10;99.90
17918;DHT22;9084;50.956;3.106;2022-12-29T15:04:27;9.00;99.90
17918;DHT22;9084;50.956;3.106;2022-12-29T15:06:56;8.90;99.90
17918;DHT22;9084;50.956;3.106;2022-12-29T15:14:56;9.00;99.90
17918;DHT22;9084;50.956;3.106;2022-12-29T15:17:30;8.90;99.90
17918;DHT22;9084;50.956;3.106;2022-12-29T15:20:01;8.90;99.90
17918;DHT22;9084;50.956;3.106;2022-12-29T15:22:27;8.80;99.90
17918;DHT22;9084;50.956;3.106;2022-12-29T15:24:54;8.80;99.90
17918;DHT22;9084;50.956;3.106;2022-12-29T15:27:25;8.70;99.90
17918;DHT22;9084;50.956;3.106;2022-12-29T15:29:59;8.70;99.90
17918;DHT22;9084;50.956;3.106;2022-12-29T15:32:28;8.70;99.90
17918;DHT22;9084;50.956;3.106;2022-12-29T15:34:58;8.60;99.90
17918;DHT22;9084;50.956;3.106;2022-12-29T15:37:33;8.60;99.90
17918;DHT22;9084;50.956;3.106;2022-12-29T15:40:04;8.60;99.90
17918;DHT22;9084;50.956;3.106;2022-12-29T15:42:46;8.60;99.90
17918;DHT22;9084;50.956;3.106;2022-12-29T15:45:15;8.60;99.90
17918;DHT22;9084;50.956;3.106;2022-12-29T15:47:44;8.50;99.90
17918;DHT22;9084;50.956;3.106;2022-12-29T15:50:29;8.50;99.90
17918;DHT22;9084;50.956;3.106;2022-12-29T15:52:56;8.40;99.90
17918;DHT22;9084;50.956;3.106;2022-12-29T15:55:37;8.40;99.90
17918;DHT22;9084;50.956;3.106;2022-12-29T15:58:16;8.30;99.90
17918;DHT22;9084;50.956;3.106;2022-12-29T16:00:50;8.30;99.90
17918;DHT22;9084;50.956;3.106;2022-12-29T16:03:18;8.20;99.90
17918;DHT22;9084;50.956;3.106;2022-12-29T16:05:58;8.20;99.90
17918;DHT22;9084;50.956;3.106;2022-12-29T16:08:34;8.10;99.90
17918;DHT22;9084;50.956;3.106;2022-12-29T16:11:26;8.10;99.90
17918;DHT22;9084;50.956;3.106;2022-12-29T16:13:50;8.10;99.90
17918;DHT22;9084;50.956;3.106;2022-12-29T16:16:38;8.00;99.90
17918;DHT22;9084;50.956;3.106;2022-12-29T16:19:29;8.00;99.90
17918;DHT22;9084;50.956;3.106;2022-12-29T16:21:58;8.00;99.90
17918;DHT22;9084;50.956;3.106;2022-12-29T16:24:32;8.00;99.90
17918;DHT22;9084;50.956;3.106;2022-12-29T16:27:09;8.00;99.90
17918;DHT22;9084;50.956;3.106;2022-12-29T16:29:39;8.00;99.90
17918;DHT22;9084;50.956;3.106;2022-12-29T16:32:27;8.00;99.90
17918;DHT22;9084;50.956;3.106;2022-12-29T16:35:19;8.00;99.90
17918;DHT22;9084;50.956;3.106;2022-12-29T16:37:46;8.00;99.90
17918;DHT22;9084;50.956;3.106;2022-12-29T16:42:48;8.00;99.90
17918;DHT22;9084;50.956;3.106;2022-12-29T16:47:48;8.00;99.90
17918;DHT22;9084;50.956;3.106;2022-12-29T16:50:20;8.00;99.90
17918;DHT22;9084;50.956;3.106;2022-12-29T16:52:49;8.10;99.90
17918;DHT22;9084;50.956;3.106;2022-12-29T16:55:16;8.10;99.90
17918;DHT22;9084;50.956;3.106;2022-12-29T16:57:44;8.10;99.90
17918;DHT22;9084;50.956;3.106;2022-12-29T17:00:36;8.10;99.90
17918;DHT22;9084;50.956;3.106;2022-12-29T17:03:03;8.10;99.90
17918;DHT22;9084;50.956;3.106;2022-12-29T17:05:29;8.20;99.90
17918;DHT22;9084;50.956;3.106;2022-12-29T17:07:54;8.20;99.90
17918;DHT22;9084;50.956;3.106;2022-12-29T17:10:26;8.10;99.90
17918;DHT22;9084;50.956;3.106;2022-12-29T17:13:11;8.20;99.90
17918;DHT22;9084;50.956;3.106;2022-12-29T17:15:37;8.30;99.90
17918;DHT22;9084;50.956;3.106;2022-12-29T17:18:07;8.40;99.90
17918;DHT22;9084;50.956;3.106;2022-12-29T17:20:37;8.40;99.90
17918;DHT22;9084;50.956;3.106;2022-12-29T17:23:14;8.40;99.90
17918;DHT22;9084;50.956;3.106;2022-12-29T17:25:41;8.50;99.90
17918;DHT22;9084;50.956;3.106;2022-12-29T17:30:48;8.50;99.90
17918;DHT22;9084;50.956;3.106;2022-12-29T17:33:18;8.40;99.90
17918;DHT22;9084;50.956;3.106;2022-12-29T17:35:44;8.30;99.90
17918;DHT22;9084;50.956;3.106;2022-12-29T17:38:28;8.30;99.90
17918;DHT22;9084;50.956;3.106;2022-12-29T17:40:54;8.30;99.90
17918;DHT22;9084;50.956;3.106;2022-12-29T17:43:20;8.20;99.90
17918;DHT22;9084;50.956;3.106;2022-12-29T17:45:54;8.20;99.90
17918;DHT22;9084;50.956;3.106;2022-12-29T17:48:20;8.60;99.90
17918;DHT22;9084;50.956;3.106;2022-12-29T17:50:47;8.20;99.90
17918;DHT22;9084;50.956;3.106;2022-12-29T17:53:16;8.20;99.90
17918;DHT22;9084;50.956;3.106;2022-12-29T17:55:44;8.20;99.90
17918;DHT22;9084;50.956;3.106;2022-12-29T17:58:23;8.10;99.90
17918;DHT22;9084;50.956;3.106;2022-12-29T18:00:52;8.20;99.90
17918;DHT22;9084;50.956;3.106;2022-12-29T18:03:35;8.10;99.90
17918;DHT22;9084;50.956;3.106;2022-12-29T18:06:03;8.20;99.90
17918;DHT22;9084;50.956;3.106;2022-12-29T18:08:31;8.20;99.90
17918;DHT22;9084;50.956;3.106;2022-12-29T18:10:59;8.20;99.90
17918;DHT22;9084;50.956;3.106;2022-12-29T18:13:27;8.10;99.90
17918;DHT22;9084;50.956;3.106;2022-12-29T18:15:55;8.20;99.90
17918;DHT22;9084;50.956;3.106;2022-12-29T18:18:26;8.10;99.90
17918;DHT22;9084;50.956;3.106;2022-12-29T18:20:54;8.10;99.90
17918;DHT22;9084;50.956;3.106;2022-12-29T18:23:26;8.20;99.90
17918;DHT22;9084;50.956;3.106;2022-12-29T18:26:03;8.10;99.90
17918;DHT22;9084;50.956;3.106;2022-12-29T18:28:31;8.10;99.90
17918;DHT22;9084;50.956;3.106;2022-12-29T18:31:00;8.20;99.90
17918;DHT22;9084;50.956;3.106;2022-12-29T18:33:26;8.10;99.90
17918;DHT22;9084;50.956;3.106;2022-12-29T18:38:18;8.10;99.90
17918;DHT22;9084;50.956;3.106;2022-12-29T18:40:46;8.10;99.90
17918;DHT22;9084;50.956;3.106;2022-12-29T18:43:14;8.00;99.90
17918;DHT22;9084;50.956;3.106;2022-12-29T18:45:41;8.00;99.90
17918;DHT22;9084;50.956;3.106;2022-12-29T18:48:07;8.00;99.90
17918;DHT22;9084;50.956;3.106;2022-12-29T18:50:33;8.00;99.90
17918;DHT22;9084;50.956;3.106;2022-12-29T18:52:59;8.00;99.90